Aguilares, Texas
Current Conditions -  °F | °C
As of 7:55 PM on Thursday 18 Dec 2014 (Local Time) from KHBV Reporting Station
Overcast Overcast  
Wind Chill: 64°   Ceiling: 400
Heat Index: 64°   Visibility: 3mi
Dew Point: 63°   Wind: 0mph
Humidity: 96%   Direction: NA
Pressure: 30"   Gusts: NA
Location:  27.4459°N, 99.0184°W
Report Text: KHBV 190155Z AUTO 00000KT 3SM OVC004 18/17 A3000 RMK AO2 T01770170 PWINO
Loading
Personal Weather Stations






























Interactive Weather Map New forecast layout! Learn more

10-Day Weather Forecast

Advertisements
Track Severe Weather on mobile